createdAt,value
2022-12-31T00:00:59.112Z,97176.78
2022-12-31T00:03:25.567Z,97172.63
2022-12-31T00:05:52.114Z,97176.03
2022-12-31T00:08:18.550Z,97183.53
2022-12-31T00:10:45.014Z,97192.00
2022-12-31T00:13:12.089Z,97189.56
2022-12-31T00:15:39.573Z,97187.78
2022-12-31T00:18:06.212Z,97188.94
2022-12-31T00:20:32.922Z,97184.97
2022-12-31T00:22:59.381Z,97184.25
2022-12-31T00:25:25.803Z,97180.09
2022-12-31T00:27:52.262Z,97183.84
2022-12-31T00:30:18.640Z,97178.41
2022-12-31T00:32:45.044Z,97179.94
2022-12-31T00:35:11.461Z,97191.09
2022-12-31T00:37:37.851Z,97189.41
2022-12-31T00:40:04.809Z,97201.41
2022-12-31T00:42:31.232Z,97196.34
2022-12-31T00:44:57.619Z,97200.56
2022-12-31T00:47:24.669Z,97202.25
2022-12-31T00:49:51.069Z,97200.41
2022-12-31T00:52:18.332Z,97202.47
2022-12-31T00:54:44.730Z,97199.16
2022-12-31T00:57:11.153Z,97211.16
2022-12-31T00:59:37.606Z,97211.25
2022-12-31T01:02:04.061Z,97217.34
2022-12-31T01:04:30.500Z,97207.63
2022-12-31T01:06:56.937Z,97216.88
2022-12-31T01:09:23.392Z,97211.66
2022-12-31T01:11:51.070Z,97219.41
2022-12-31T01:14:18.918Z,97231.41
2022-12-31T01:16:46.891Z,97225.56
2022-12-31T01:19:14.759Z,97238.81
2022-12-31T01:21:41.752Z,97237.09
2022-12-31T01:24:09.240Z,97247.56
2022-12-31T01:26:36.400Z,97249.19
2022-12-31T01:29:03.309Z,97251.94
2022-12-31T01:31:29.803Z,97264.16
2022-12-31T01:33:57.534Z,97258.84
2022-12-31T01:36:26.452Z,97264.88
2022-12-31T01:38:54.176Z,97260.47
2022-12-31T01:41:21.695Z,97259.41
2022-12-31T01:43:49.568Z,97267.25
2022-12-31T01:46:34.015Z,97260.63
2022-12-31T01:49:02.933Z,97272.63
2022-12-31T01:51:31.318Z,97277.31
2022-12-31T01:53:58.873Z,97266.41
2022-12-31T01:56:25.833Z,97261.06
2022-12-31T01:58:53.275Z,97265.34
2022-12-31T02:01:24.475Z,97266.97
2022-12-31T02:03:51.877Z,97262.81
2022-12-31T02:06:21.604Z,97267.22
2022-12-31T02:08:48.378Z,97266.84
2022-12-31T02:11:23.523Z,97265.94
2022-12-31T02:13:55.002Z,97270.84
2022-12-31T02:16:24.612Z,97266.03
2022-12-31T02:19:02.233Z,97262.47
2022-12-31T02:21:40.029Z,97264.88
2022-12-31T02:24:09.426Z,97260.44
2022-12-31T02:27:05.228Z,97260.44
2022-12-31T02:29:37.396Z,97257.84
2022-12-31T02:32:12.588Z,97260.88
2022-12-31T02:34:46.356Z,97253.78
2022-12-31T02:37:14.520Z,97268.50
2022-12-31T02:39:43.150Z,97272.97
2022-12-31T02:42:10.602Z,97272.09
2022-12-31T02:44:37.964Z,97276.03
2022-12-31T02:47:19.274Z,97270.44
2022-12-31T02:49:57.818Z,97275.59
2022-12-31T02:52:24.163Z,97270.19
2022-12-31T02:54:56.662Z,97261.56
2022-12-31T02:57:26.007Z,97261.41
2022-12-31T03:00:30.388Z,97254.31
2022-12-31T03:02:58.647Z,97255.09
2022-12-31T03:05:27.175Z,97264.13
2022-12-31T03:07:53.862Z,97269.28
2022-12-31T03:10:20.399Z,97272.72
2022-12-31T03:12:47.476Z,97266.78
2022-12-31T03:15:20.514Z,97272.19
2022-12-31T03:17:53.261Z,97273.97
2022-12-31T03:20:38.826Z,97281.91
2022-12-31T03:23:09.639Z,97281.72
2022-12-31T03:25:36.151Z,97282.66
2022-12-31T03:28:03.834Z,97283.34
2022-12-31T03:30:30.768Z,97295.44
2022-12-31T03:32:57.581Z,97296.72
2022-12-31T03:35:24.582Z,97297.75
2022-12-31T03:37:52.015Z,97296.88
2022-12-31T03:40:19.807Z,97297.88
2022-12-31T03:42:46.289Z,97306.19
2022-12-31T03:45:13.449Z,97303.03
2022-12-31T03:47:39.905Z,97302.19
2022-12-31T03:50:07.064Z,97306.59
2022-12-31T03:52:33.673Z,97307.66
2022-12-31T03:55:01.634Z,97302.56
2022-12-31T03:57:28.479Z,97301.75
2022-12-31T03:59:54.899Z,97304.34
2022-12-31T04:02:28.060Z,97304.81
2022-12-31T04:04:55.192Z,97309.16
2022-12-31T04:07:21.590Z,97309.66
2022-12-31T04:09:48.092Z,97307.13
2022-12-31T04:12:14.499Z,97309.13
2022-12-31T04:14:41.081Z,97317.59
2022-12-31T04:17:07.811Z,97319.59
2022-12-31T04:19:34.231Z,97324.56
2022-12-31T04:22:00.678Z,97327.72
2022-12-31T04:24:27.336Z,97326.66
2022-12-31T04:26:53.755Z,97330.09
2022-12-31T04:29:20.151Z,97333.50
2022-12-31T04:31:46.644Z,97339.34
2022-12-31T04:34:13.058Z,97342.59
2022-12-31T04:36:39.644Z,97341.59
2022-12-31T04:39:06.060Z,97333.44
2022-12-31T04:41:32.538Z,97338.84
2022-12-31T04:43:59.744Z,97340.66
2022-12-31T04:46:30.732Z,97334.69
2022-12-31T04:48:57.420Z,97346.06
2022-12-31T04:51:24.749Z,97352.19
2022-12-31T04:53:51.265Z,97356.59
2022-12-31T04:56:17.997Z,97348.59
2022-12-31T04:58:44.800Z,97346.75
2022-12-31T05:01:11.755Z,97353.75
2022-12-31T05:03:38.665Z,97343.22
2022-12-31T05:06:06.754Z,97350.28
2022-12-31T05:08:33.188Z,97351.72
2022-12-31T05:10:59.941Z,97350.72
2022-12-31T05:13:32.784Z,97355.38
2022-12-31T05:15:59.840Z,97363.22
2022-12-31T05:18:26.314Z,97359.81
2022-12-31T05:20:52.737Z,97379.03
2022-12-31T05:23:19.130Z,97383.34
2022-12-31T05:25:46.533Z,97382.94
2022-12-31T05:28:13.374Z,97376.50
2022-12-31T05:30:40.187Z,97374.78
2022-12-31T05:33:06.627Z,97370.13
2022-12-31T05:35:33.056Z,97377.69
2022-12-31T05:37:59.820Z,97383.03
2022-12-31T05:40:26.286Z,97368.25
2022-12-31T05:42:52.691Z,97378.72
2022-12-31T05:45:21.046Z,97378.69
2022-12-31T05:47:49.207Z,97374.91
2022-12-31T05:50:15.792Z,97387.00
2022-12-31T05:52:47.420Z,97374.84
2022-12-31T05:55:14.270Z,97383.22
2022-12-31T05:57:40.870Z,97383.06
2022-12-31T06:00:09.199Z,97381.94
2022-12-31T06:02:35.650Z,97382.69
2022-12-31T06:05:02.043Z,97387.03
2022-12-31T06:07:28.524Z,97393.97
2022-12-31T06:09:54.915Z,97382.44
2022-12-31T06:12:21.393Z,97384.78
2022-12-31T06:14:47.872Z,97384.00
2022-12-31T06:17:14.263Z,97387.22
2022-12-31T06:19:40.656Z,97392.34
2022-12-31T06:22:07.027Z,97392.09
2022-12-31T06:24:33.468Z,97403.47
2022-12-31T06:26:59.871Z,97405.63
2022-12-31T06:29:26.297Z,97406.22
2022-12-31T06:31:52.804Z,97403.41
2022-12-31T06:34:19.250Z,97404.16
2022-12-31T06:36:45.694Z,97406.78
2022-12-31T06:39:12.124Z,97411.91
2022-12-31T06:41:38.588Z,97410.78
2022-12-31T06:44:05.314Z,97417.56
2022-12-31T06:46:31.772Z,97413.34
2022-12-31T06:48:58.249Z,97411.16
2022-12-31T06:51:24.683Z,97415.13
2022-12-31T06:53:51.834Z,97408.97
2022-12-31T06:56:31.289Z,97415.69
2022-12-31T06:59:00.493Z,97426.56
2022-12-31T07:01:29.822Z,97427.69
2022-12-31T07:04:14.761Z,97427.31
2022-12-31T07:06:51.736Z,97428.28
2022-12-31T07:09:37.979Z,97437.69
2022-12-31T07:12:11.942Z,97446.81
2022-12-31T07:14:44.264Z,97434.75
2022-12-31T07:17:29.269Z,97443.28
2022-12-31T07:20:02.567Z,97452.47
2022-12-31T07:22:29.406Z,97454.16
2022-12-31T07:24:55.905Z,97459.31
2022-12-31T07:27:22.269Z,97450.53
2022-12-31T07:30:07.125Z,97450.75
2022-12-31T07:32:42.405Z,97458.97
2022-12-31T07:35:24.973Z,97456.09
2022-12-31T07:38:02.466Z,97457.78
2022-12-31T07:40:41.185Z,97463.94
2022-12-31T07:43:07.584Z,97469.56
2022-12-31T07:45:37.068Z,97464.25
2022-12-31T07:48:03.700Z,97480.81
2022-12-31T07:50:30.326Z,97478.97
2022-12-31T07:52:56.930Z,97474.50
2022-12-31T07:55:23.291Z,97469.16
2022-12-31T07:57:56.633Z,97490.06
2022-12-31T08:00:23.232Z,97480.03
2022-12-31T08:03:08.286Z,97481.94
2022-12-31T08:05:40.813Z,97478.88
2022-12-31T08:08:16.219Z,97472.22
2022-12-31T08:10:53.546Z,97476.03
2022-12-31T08:13:20.987Z,97475.50
2022-12-31T08:15:47.544Z,97475.00
2022-12-31T08:18:14.184Z,97474.59
2022-12-31T08:20:55.669Z,97475.50
2022-12-31T08:23:28.468Z,97482.97
2022-12-31T08:26:13.377Z,97484.56
2022-12-31T08:28:42.540Z,97489.81
2022-12-31T08:31:12.009Z,97487.72
2022-12-31T08:33:59.474Z,97485.09
2022-12-31T08:36:39.714Z,97486.44
2022-12-31T08:39:26.354Z,97485.66
2022-12-31T08:41:54.576Z,97487.28
2022-12-31T08:44:20.918Z,97493.41
2022-12-31T08:46:55.569Z,97500.19
2022-12-31T08:49:22.115Z,97491.22
2022-12-31T08:51:48.602Z,97500.28
2022-12-31T08:54:15.038Z,97494.22
2022-12-31T08:57:00.380Z,97502.38
2022-12-31T08:59:36.035Z,97504.28
2022-12-31T09:02:28.043Z,97520.03
2022-12-31T09:05:13.303Z,97513.25
2022-12-31T09:07:41.421Z,97519.88
2022-12-31T09:10:28.037Z,97516.41
2022-12-31T09:12:54.836Z,97517.75
2022-12-31T09:15:26.235Z,97517.53
2022-12-31T09:17:52.765Z,97519.38
2022-12-31T09:20:24.649Z,97520.50
2022-12-31T09:22:51.622Z,97518.03
2022-12-31T09:25:19.283Z,97513.97
2022-12-31T09:27:45.722Z,97508.03
2022-12-31T09:30:12.962Z,97505.44
2022-12-31T09:32:39.375Z,97499.13
2022-12-31T09:35:24.723Z,97500.22
2022-12-31T09:37:55.419Z,97489.97
2022-12-31T09:40:40.465Z,97480.88
2022-12-31T09:43:33.627Z,97468.19
2022-12-31T09:46:00.118Z,97455.63
2022-12-31T09:49:02.099Z,97462.09
2022-12-31T09:51:32.245Z,97470.47
2022-12-31T09:54:23.732Z,97469.00
2022-12-31T09:57:19.615Z,97477.25
2022-12-31T09:59:54.308Z,97476.94
2022-12-31T10:02:35.795Z,97477.59
2022-12-31T10:05:16.359Z,97478.28
2022-12-31T10:07:53.553Z,97472.91
2022-12-31T10:10:26.025Z,97468.81
2022-12-31T10:12:55.572Z,97468.34
2022-12-31T10:15:34.037Z,97459.16
2022-12-31T10:18:12.902Z,97466.84
2022-12-31T10:20:51.653Z,97455.16
2022-12-31T10:23:21.159Z,97456.81
2022-12-31T10:25:47.518Z,97458.97
2022-12-31T10:28:13.887Z,97454.34
2022-12-31T10:30:45.622Z,97456.94
2022-12-31T10:33:30.785Z,97455.63
2022-12-31T10:36:08.291Z,97448.91
2022-12-31T10:38:45.710Z,97447.44
2022-12-31T10:41:21.377Z,97449.69
2022-12-31T10:43:47.736Z,97451.22
2022-12-31T10:46:32.904Z,97450.56
2022-12-31T10:49:02.068Z,97445.28
2022-12-31T10:51:37.684Z,97443.50
2022-12-31T10:54:18.837Z,97437.72
2022-12-31T10:56:48.262Z,97437.72
2022-12-31T10:59:14.615Z,97434.50
2022-12-31T11:01:44.122Z,97441.06
2022-12-31T11:04:16.457Z,97440.53
2022-12-31T11:07:01.435Z,97440.75
2022-12-31T11:09:46.636Z,97436.38
2022-12-31T11:12:22.206Z,97439.53
2022-12-31T11:14:51.669Z,97437.50
2022-12-31T11:17:28.209Z,97436.34
2022-12-31T11:19:54.549Z,97442.38
2022-12-31T11:22:27.232Z,97434.59
2022-12-31T11:25:11.661Z,97438.03
2022-12-31T11:27:47.624Z,97428.16
2022-12-31T11:30:15.816Z,97420.00
2022-12-31T11:33:05.599Z,97417.53
2022-12-31T11:35:38.701Z,97406.72
2022-12-31T11:38:14.405Z,97417.53
2022-12-31T11:40:54.324Z,97415.00
2022-12-31T11:43:27.034Z,97412.16
2022-12-31T11:46:18.008Z,97418.31
2022-12-31T11:48:54.263Z,97415.66
2022-12-31T11:51:20.658Z,97418.94
2022-12-31T11:54:12.615Z,97408.78
2022-12-31T11:56:41.495Z,97402.34
2022-12-31T11:59:13.162Z,97406.56
2022-12-31T12:01:42.243Z,97403.78
2022-12-31T12:04:10.173Z,97404.06
2022-12-31T12:06:36.996Z,97406.75
2022-12-31T12:09:06.274Z,97399.03
2022-12-31T12:11:35.308Z,97401.56
2022-12-31T12:14:02.063Z,97397.22
2022-12-31T12:16:28.660Z,97385.00
2022-12-31T12:19:05.887Z,97393.56
2022-12-31T12:21:32.421Z,97390.06
2022-12-31T12:24:01.911Z,97395.13
2022-12-31T12:26:30.476Z,97391.91
2022-12-31T12:28:59.623Z,97379.44
2022-12-31T12:31:26.999Z,97387.84
2022-12-31T12:33:53.516Z,97379.31
2022-12-31T12:36:20.596Z,97382.66
2022-12-31T12:38:47.076Z,97383.34
2022-12-31T12:41:21.060Z,97385.03
2022-12-31T12:43:47.540Z,97381.38
2022-12-31T12:46:23.047Z,97378.72
2022-12-31T12:48:54.612Z,97377.31
2022-12-31T12:51:24.011Z,97376.09
2022-12-31T12:53:56.157Z,97377.59
2022-12-31T12:56:38.784Z,97374.59
2022-12-31T12:59:08.009Z,97368.66
2022-12-31T13:01:35.004Z,97367.63
2022-12-31T13:04:33.439Z,97370.41
2022-12-31T13:07:00.020Z,97365.13
2022-12-31T13:09:49.234Z,97362.69
2022-12-31T13:12:15.652Z,97367.53
2022-12-31T13:14:44.826Z,97368.84
2022-12-31T13:17:20.434Z,97365.31
2022-12-31T13:19:50.554Z,97359.91
2022-12-31T13:22:16.878Z,97357.44
2022-12-31T13:24:46.297Z,97353.78
2022-12-31T13:27:16.984Z,97355.66
2022-12-31T13:29:45.371Z,97354.75
2022-12-31T13:32:16.854Z,97362.53
2022-12-31T13:34:46.368Z,97359.22
2022-12-31T13:37:18.538Z,97359.88
2022-12-31T13:39:46.498Z,97352.50
2022-12-31T13:42:24.381Z,97352.69
2022-12-31T13:45:14.268Z,97359.28
2022-12-31T13:47:43.992Z,97365.19
2022-12-31T13:50:14.391Z,97363.47
2022-12-31T13:53:03.128Z,97364.81
2022-12-31T13:55:41.581Z,97369.25
2022-12-31T13:58:07.936Z,97372.72
2022-12-31T14:00:41.026Z,97369.84
2022-12-31T14:03:10.656Z,97369.47
2022-12-31T14:05:37.075Z,97369.56
2022-12-31T14:08:04.942Z,97366.66
2022-12-31T14:10:37.363Z,97367.41
2022-12-31T14:13:16.037Z,97375.06
2022-12-31T14:15:48.911Z,97377.69
2022-12-31T14:18:24.512Z,97382.47
2022-12-31T14:20:54.033Z,97375.81
2022-12-31T14:23:53.341Z,97384.00
2022-12-31T14:26:31.370Z,97379.66
2022-12-31T14:29:04.284Z,97388.91
2022-12-31T14:31:42.843Z,97397.16
2022-12-31T14:34:12.322Z,97394.47
2022-12-31T14:36:44.870Z,97404.94
2022-12-31T14:39:21.679Z,97401.56
2022-12-31T14:42:03.274Z,97400.56
2022-12-31T14:44:39.796Z,97408.00
2022-12-31T14:47:18.639Z,97411.22
2022-12-31T14:49:47.830Z,97416.19
2022-12-31T14:52:31.233Z,97430.31
2022-12-31T14:55:18.242Z,97428.94
2022-12-31T14:58:25.831Z,97429.25
2022-12-31T15:00:35.066Z,97447.13
2022-12-31T15:03:31.641Z,97445.97
2022-12-31T15:05:58.531Z,97453.94
2022-12-31T15:08:31.160Z,97453.97
2022-12-31T15:11:16.311Z,97455.88
2022-12-31T15:13:57.785Z,97447.34
2022-12-31T15:16:36.466Z,97444.91
2022-12-31T15:19:05.913Z,97451.19
2022-12-31T15:21:50.652Z,97457.50
2022-12-31T15:24:21.462Z,97465.88
2022-12-31T15:26:49.781Z,97450.72
2022-12-31T15:29:24.535Z,97455.47
2022-12-31T15:31:51.403Z,97450.03
2022-12-31T15:34:26.205Z,97465.03
2022-12-31T15:36:54.643Z,97450.56
2022-12-31T15:39:25.504Z,97452.06
2022-12-31T15:42:36.240Z,97463.97
2022-12-31T15:44:50.625Z,97462.13
2022-12-31T15:47:29.438Z,97460.75
2022-12-31T15:49:56.973Z,97453.41
2022-12-31T15:52:31.140Z,97443.75
2022-12-31T15:54:57.961Z,97446.53
2022-12-31T15:57:33.083Z,97448.25
2022-12-31T16:00:00.402Z,97457.66
2022-12-31T16:02:28.159Z,97453.25
2022-12-31T16:04:55.054Z,97449.38
2022-12-31T16:07:22.421Z,97457.91
2022-12-31T16:09:56.234Z,97454.19
2022-12-31T16:12:27.843Z,97461.47
2022-12-31T16:14:58.496Z,97462.97
2022-12-31T16:17:32.313Z,97470.28
2022-12-31T16:19:59.799Z,97477.94
2022-12-31T16:22:28.044Z,97473.25
2022-12-31T16:25:28.973Z,97475.94
2022-12-31T16:27:42.543Z,97474.81
2022-12-31T16:30:19.756Z,97477.16
2022-12-31T16:32:47.458Z,97484.69
2022-12-31T16:35:40.349Z,97497.25
2022-12-31T16:38:14.495Z,97495.56
2022-12-31T16:41:01.717Z,97489.03
2022-12-31T16:43:28.180Z,97476.22
2022-12-31T16:45:59.117Z,97482.91
2022-12-31T16:48:26.454Z,97491.03
2022-12-31T16:50:54.125Z,97494.31
2022-12-31T16:53:22.460Z,97489.84
2022-12-31T16:55:54.922Z,97490.28
2022-12-31T16:58:28.310Z,97500.91
2022-12-31T17:00:59.551Z,97504.09
2022-12-31T17:03:28.259Z,97500.16
2022-12-31T17:05:56.932Z,97503.16
2022-12-31T17:08:25.503Z,97496.09
2022-12-31T17:10:51.950Z,97492.38
2022-12-31T17:13:27.866Z,97487.25
2022-12-31T17:15:56.423Z,97489.78
2022-12-31T17:18:24.355Z,97490.28
2022-12-31T17:20:51.605Z,97493.91
2022-12-31T17:23:29.215Z,97499.56
2022-12-31T17:26:00.402Z,97501.75
2022-12-31T17:28:27.744Z,97497.84
2022-12-31T17:30:58.557Z,97497.13
2022-12-31T17:33:25.146Z,97506.00
2022-12-31T17:36:13.531Z,97501.84
2022-12-31T17:38:39.972Z,97494.19
2022-12-31T17:41:06.300Z,97496.09
2022-12-31T17:43:35.344Z,97492.44
2022-12-31T17:46:02.036Z,97494.16
2022-12-31T17:48:28.864Z,97488.91
2022-12-31T17:50:59.133Z,97488.44
2022-12-31T17:53:26.015Z,97491.34
2022-12-31T17:55:54.669Z,97502.22
2022-12-31T17:58:29.644Z,97507.63
2022-12-31T18:00:56.853Z,97506.03
2022-12-31T18:03:23.491Z,97503.94
2022-12-31T18:05:50.013Z,97500.28
2022-12-31T18:08:16.426Z,97512.00
2022-12-31T18:10:44.030Z,97504.59
2022-12-31T18:13:14.233Z,97493.91
2022-12-31T18:15:40.950Z,97494.69
2022-12-31T18:18:22.521Z,97502.91
2022-12-31T18:21:01.234Z,97507.06
2022-12-31T18:23:27.586Z,97506.16
2022-12-31T18:25:54.160Z,97493.94
2022-12-31T18:28:20.953Z,97498.09
2022-12-31T18:30:48.078Z,97504.88
2022-12-31T18:33:16.887Z,97497.44
2022-12-31T18:38:31.485Z,97496.69
2022-12-31T18:40:58.777Z,97502.56
2022-12-31T18:43:25.651Z,97514.50
2022-12-31T18:45:52.513Z,97514.69
2022-12-31T18:48:19.208Z,97513.78
2022-12-31T18:50:45.989Z,97512.91
2022-12-31T18:53:20.006Z,97504.78
2022-12-31T18:55:51.202Z,97506.53
2022-12-31T18:58:17.729Z,97502.22
2022-12-31T19:00:44.331Z,97504.84
2022-12-31T19:03:17.927Z,97499.16
2022-12-31T19:05:45.645Z,97503.19
2022-12-31T19:08:12.100Z,97505.59
2022-12-31T19:10:38.615Z,97501.16
2022-12-31T19:13:05.042Z,97500.31
2022-12-31T19:15:39.008Z,97504.78
2022-12-31T19:18:05.435Z,97510.88
2022-12-31T19:20:32.099Z,97505.22
2022-12-31T19:22:58.733Z,97505.34
2022-12-31T19:25:26.823Z,97514.16
2022-12-31T19:27:53.307Z,97512.66
2022-12-31T19:30:23.240Z,97511.09
2022-12-31T19:32:49.683Z,97505.88
2022-12-31T19:35:16.469Z,97497.31
2022-12-31T19:37:43.773Z,97489.69
2022-12-31T19:40:13.279Z,97492.59
2022-12-31T19:42:39.694Z,97490.97
2022-12-31T19:45:06.369Z,97480.41
2022-12-31T19:47:32.875Z,97466.94
2022-12-31T19:49:59.386Z,97469.19
2022-12-31T19:52:25.793Z,97463.47
2022-12-31T19:54:52.179Z,97476.81
2022-12-31T19:57:18.602Z,97476.28
2022-12-31T19:59:44.984Z,97473.81
2022-12-31T20:02:11.554Z,97478.06
2022-12-31T20:04:38.167Z,97473.81
2022-12-31T20:07:04.615Z,97468.53
2022-12-31T20:09:31.028Z,97460.56
2022-12-31T20:11:57.460Z,97468.75
2022-12-31T20:14:23.849Z,97470.69
2022-12-31T20:16:50.324Z,97473.31
2022-12-31T20:19:16.744Z,97489.91
2022-12-31T20:21:44.533Z,97492.03
2022-12-31T20:24:10.961Z,97485.19
2022-12-31T20:26:37.426Z,97489.44
2022-12-31T20:29:03.844Z,97488.59
2022-12-31T20:31:30.335Z,97492.56
2022-12-31T20:33:56.838Z,97484.78
2022-12-31T20:36:23.776Z,97489.78
2022-12-31T20:38:50.239Z,97487.34
2022-12-31T20:41:20.392Z,97495.50
2022-12-31T20:43:47.134Z,97496.72
2022-12-31T20:46:16.114Z,97503.06
2022-12-31T20:48:43.782Z,97499.53
2022-12-31T20:51:10.226Z,97494.28
2022-12-31T20:53:36.748Z,97494.41
2022-12-31T20:56:04.211Z,97502.97
2022-12-31T20:58:30.644Z,97497.75
2022-12-31T21:00:57.119Z,97499.66
2022-12-31T21:04:02.889Z,97504.94
2022-12-31T21:06:10.614Z,97507.13
2022-12-31T21:08:37.215Z,97503.78
2022-12-31T21:11:24.256Z,97509.75
2022-12-31T21:13:50.895Z,97507.47
2022-12-31T21:16:17.413Z,97518.78
2022-12-31T21:18:43.913Z,97529.47
2022-12-31T21:21:11.074Z,97528.56
2022-12-31T21:23:37.538Z,97555.91
2022-12-31T21:26:04.526Z,97586.56
2022-12-31T21:28:30.926Z,97584.28
2022-12-31T21:30:58.154Z,97595.41
2022-12-31T21:33:24.647Z,97599.00
2022-12-31T21:35:53.892Z,97593.75
2022-12-31T21:38:21.049Z,97609.00
2022-12-31T21:40:47.526Z,97602.25
2022-12-31T21:43:14.559Z,97613.69
2022-12-31T21:45:41.471Z,97613.91
2022-12-31T21:48:19.851Z,97605.13
2022-12-31T21:50:48.557Z,97603.88
2022-12-31T21:53:24.182Z,97604.44
2022-12-31T21:56:11.699Z,97603.97
2022-12-31T21:58:39.910Z,97611.25
2022-12-31T22:01:25.064Z,97608.94
2022-12-31T22:03:51.775Z,97603.25
2022-12-31T22:06:21.941Z,97600.59
2022-12-31T22:08:49.946Z,97593.44
2022-12-31T22:11:17.209Z,97597.94
2022-12-31T22:13:44.026Z,97600.50
2022-12-31T22:16:11.231Z,97593.09
2022-12-31T22:18:39.109Z,97574.88
2022-12-31T22:21:05.860Z,97576.34
2022-12-31T22:23:33.040Z,97561.56
2022-12-31T22:25:59.961Z,97558.00
2022-12-31T22:28:41.606Z,97560.09
2022-12-31T22:31:09.733Z,97568.19
2022-12-31T22:33:36.325Z,97564.09
2022-12-31T22:36:07.128Z,97566.75
2022-12-31T22:38:33.801Z,97574.31
2022-12-31T22:41:08.406Z,97575.13
2022-12-31T22:43:38.859Z,97581.91
2022-12-31T22:46:06.108Z,97575.22
2022-12-31T22:48:32.594Z,97583.38
2022-12-31T22:50:59.037Z,97584.44
2022-12-31T22:53:25.529Z,97585.69
2022-12-31T22:55:53.473Z,97576.13
2022-12-31T22:58:20.035Z,97584.88
2022-12-31T23:00:47.021Z,97586.88
2022-12-31T23:03:13.581Z,97585.41
2022-12-31T23:05:40.173Z,97596.50
2022-12-31T23:08:17.177Z,97588.84
2022-12-31T23:11:05.371Z,97590.59
2022-12-31T23:14:10.650Z,97593.00
2022-12-31T23:16:55.606Z,97586.28
2022-12-31T23:19:40.521Z,97584.47
2022-12-31T23:22:25.472Z,97581.16
2022-12-31T23:24:51.987Z,97587.84
2022-12-31T23:27:18.421Z,97581.78
2022-12-31T23:29:47.577Z,97580.00
2022-12-31T23:32:15.301Z,97582.03
2022-12-31T23:34:42.411Z,97579.59
2022-12-31T23:37:08.958Z,97574.56
2022-12-31T23:39:35.415Z,97582.25
2022-12-31T23:42:01.907Z,97584.00
2022-12-31T23:44:28.733Z,97580.53
2022-12-31T23:46:55.412Z,97582.25
2022-12-31T23:49:21.904Z,97578.84
2022-12-31T23:51:48.331Z,97577.09
2022-12-31T23:54:15.829Z,97575.41
2022-12-31T23:56:42.421Z,97581.22
2022-12-31T23:59:12.000Z,97572.91
